createdAt,value
2018-07-15T00:01:04.722Z,97863.78
2018-07-15T00:03:36.485Z,97864.10
2018-07-15T00:06:08.272Z,97862.95
2018-07-15T00:08:39.982Z,97869.80
2018-07-15T00:11:12.640Z,97865.80
2018-07-15T00:13:44.233Z,97877.78
2018-07-15T00:16:15.945Z,97877.50
2018-07-15T00:18:47.640Z,97878.51
2018-07-15T00:21:19.513Z,97883.19
2018-07-15T00:23:51.110Z,97889.34
2018-07-15T00:26:23.248Z,97888.02
2018-07-15T00:28:55.115Z,97884.02
2018-07-15T00:31:27.512Z,97880.02
2018-07-15T00:33:59.167Z,97887.51
2018-07-15T00:36:31.008Z,97890.17
2018-07-15T00:39:02.689Z,97895.50
2018-07-15T00:41:34.525Z,97900.18
2018-07-15T00:44:06.452Z,97904.81
2018-07-15T00:46:38.314Z,97908.17
2018-07-15T00:49:09.896Z,97911.84
2018-07-15T00:51:41.745Z,97915.01
2018-07-15T00:54:13.447Z,97917.48
2018-07-15T00:56:45.340Z,97914.50
2018-07-15T00:59:16.891Z,97911.84
2018-07-15T01:01:48.635Z,97912.85
2018-07-15T01:04:20.069Z,97921.67
2018-07-15T01:06:51.910Z,97917.53
2018-07-15T01:09:23.764Z,97927.86
2018-07-15T01:11:55.861Z,97927.14
2018-07-15T01:14:27.594Z,97929.52
2018-07-15T01:16:59.634Z,97928.47
2018-07-15T01:19:31.689Z,97926.67
2018-07-15T01:22:03.295Z,97932.47
2018-07-15T01:24:34.736Z,97933.51
2018-07-15T01:27:06.720Z,97934.84
2018-07-15T01:29:38.498Z,97932.18
2018-07-15T01:32:10.699Z,97929.20
2018-07-15T01:34:42.426Z,97933.00
2018-07-15T01:37:14.239Z,97933.88
2018-07-15T01:39:45.818Z,97931.53
2018-07-15T01:42:17.642Z,97932.87
2018-07-15T01:44:49.728Z,97936.22
2018-07-15T01:47:21.054Z,97936.91
2018-07-15T01:49:52.697Z,97939.56
2018-07-15T01:52:24.610Z,97944.20
2018-07-15T01:54:56.053Z,97948.20
2018-07-15T01:57:28.075Z,97949.71
2018-07-15T01:59:59.805Z,97953.84
2018-07-15T02:02:31.808Z,97961.52
2018-07-15T02:05:03.324Z,97949.34
2018-07-15T02:07:35.331Z,97950.22
2018-07-15T02:10:06.786Z,97949.53
2018-07-15T02:12:38.595Z,97944.60
2018-07-15T02:15:10.175Z,97948.20
2018-07-15T02:17:41.957Z,97951.87
2018-07-15T02:20:13.596Z,97956.19
2018-07-15T02:22:45.375Z,97965.18
2018-07-15T02:25:16.852Z,97960.86
2018-07-15T02:27:48.155Z,97968.48
2018-07-15T02:30:19.855Z,97969.17
2018-07-15T02:32:52.276Z,97965.18
2018-07-15T02:35:23.981Z,97958.42
2018-07-15T02:37:55.826Z,97962.91
2018-07-15T02:40:27.404Z,97960.86
2018-07-15T02:42:58.877Z,97961.69
2018-07-15T02:45:30.633Z,97957.09
2018-07-15T02:48:03.155Z,97965.83
2018-07-15T02:50:34.994Z,97962.59
2018-07-15T02:53:06.784Z,97960.44
2018-07-15T02:55:38.343Z,97953.27
2018-07-15T02:58:10.049Z,97953.20
2018-07-15T03:00:41.834Z,97960.25
2018-07-15T03:03:13.534Z,97958.27
2018-07-15T03:05:45.247Z,97966.63
2018-07-15T03:08:17.081Z,97962.09
2018-07-15T03:10:48.697Z,97965.11
2018-07-15T03:13:20.489Z,97972.27
2018-07-15T03:15:52.297Z,97976.27
2018-07-15T03:18:23.933Z,97979.25
2018-07-15T03:20:55.778Z,97981.09
2018-07-15T03:23:27.720Z,97990.22
2018-07-15T03:25:59.508Z,97994.22
2018-07-15T03:28:31.132Z,97985.87
2018-07-15T03:31:02.858Z,97991.88
2018-07-15T03:33:35.626Z,97990.55
2018-07-15T03:36:07.357Z,97986.55
2018-07-15T03:38:39.194Z,97990.55
2018-07-15T03:41:10.839Z,97987.38
2018-07-15T03:43:42.716Z,97984.53
2018-07-15T03:46:14.165Z,97984.72
2018-07-15T03:48:46.077Z,97990.55
2018-07-15T03:51:17.407Z,97991.48
2018-07-15T03:53:49.168Z,97991.38
2018-07-15T03:56:21.152Z,97995.69
2018-07-15T03:58:52.655Z,97992.52
2018-07-15T04:01:24.330Z,97999.18
2018-07-15T04:03:55.917Z,97991.30
2018-07-15T04:06:27.515Z,97990.33
2018-07-15T04:08:59.302Z,97983.45
2018-07-15T04:11:31.360Z,97986.23
2018-07-15T04:14:02.946Z,97974.43
2018-07-15T04:16:34.897Z,97986.88
2018-07-15T04:19:07.476Z,97990.22
2018-07-15T04:21:39.170Z,97985.86
2018-07-15T04:24:11.035Z,97990.01
2018-07-15T04:26:42.498Z,97993.06
2018-07-15T04:29:14.397Z,98001.84
2018-07-15T04:31:45.959Z,97995.77
2018-07-15T04:34:17.763Z,97998.02
2018-07-15T04:36:49.615Z,97992.70
2018-07-15T04:39:21.607Z,97984.02
2018-07-15T04:41:53.299Z,97980.59
2018-07-15T04:44:25.086Z,97978.30
2018-07-15T04:46:56.897Z,97974.30
2018-07-15T04:49:28.756Z,97966.31
2018-07-15T04:52:00.393Z,97963.00
2018-07-15T04:54:32.064Z,97962.50
2018-07-15T04:57:03.938Z,97958.00
2018-07-15T04:59:35.717Z,97963.33
2018-07-15T05:02:07.448Z,97962.32
2018-07-15T05:04:39.338Z,97956.81
2018-07-15T05:07:11.294Z,97959.29
2018-07-15T05:09:43.447Z,97954.28
2018-07-15T05:12:15.106Z,97957.38
2018-07-15T05:14:46.925Z,97957.56
2018-07-15T05:17:18.657Z,97956.41
2018-07-15T05:19:50.651Z,97946.91
2018-07-15T05:22:22.132Z,97947.73
2018-07-15T05:24:53.987Z,97948.23
2018-07-15T05:27:25.695Z,97939.64
2018-07-15T05:29:57.453Z,97935.00
2018-07-15T05:32:29.130Z,97935.64
2018-07-15T05:35:01.453Z,97931.11
2018-07-15T05:37:33.315Z,97925.92
2018-07-15T05:40:05.206Z,97924.77
2018-07-15T05:42:36.895Z,97923.20
2018-07-15T05:45:08.405Z,97916.92
2018-07-15T05:47:40.091Z,97914.25
2018-07-15T05:50:11.689Z,97908.10
2018-07-15T05:52:43.384Z,97899.60
2018-07-15T05:55:15.271Z,97899.23
2018-07-15T05:57:46.578Z,97888.26
2018-07-15T06:00:18.365Z,97900.56
2018-07-15T06:02:50.012Z,97897.91
2018-07-15T06:05:21.867Z,97895.98
2018-07-15T06:07:53.511Z,97891.85
2018-07-15T06:10:25.567Z,97892.58
2018-07-15T06:12:57.238Z,97889.37
2018-07-15T06:15:29.145Z,97882.34
2018-07-15T06:18:00.713Z,97876.52
2018-07-15T06:20:32.567Z,97902.21
2018-07-15T06:23:04.300Z,97887.75
2018-07-15T06:25:36.093Z,97886.22
2018-07-15T06:28:07.738Z,97888.53
2018-07-15T06:30:39.631Z,97892.70
2018-07-15T06:33:11.340Z,97892.19
2018-07-15T06:35:44.749Z,97882.09
2018-07-15T06:38:16.364Z,97874.42
2018-07-15T06:40:47.912Z,97870.25
2018-07-15T06:43:19.547Z,97861.25
2018-07-15T06:45:51.366Z,97860.48
2018-07-15T06:48:22.997Z,97845.32
2018-07-15T06:50:54.790Z,97848.23
2018-07-15T06:53:26.541Z,97839.56
2018-07-15T06:55:58.532Z,97844.13
2018-07-15T06:58:30.160Z,97840.13
2018-07-15T07:01:02.009Z,97844.13
2018-07-15T07:03:33.834Z,97837.98
2018-07-15T07:06:05.458Z,97828.28
2018-07-15T07:08:37.136Z,97822.23
2018-07-15T07:11:09.131Z,97809.55
2018-07-15T07:13:40.885Z,97805.69
2018-07-15T07:16:12.739Z,97803.25
2018-07-15T07:18:44.465Z,97804.08
2018-07-15T07:21:16.303Z,97805.83
2018-07-15T07:23:48.125Z,97802.47
2018-07-15T07:26:21.121Z,97797.09
2018-07-15T07:28:52.724Z,97802.80
2018-07-15T07:31:26.529Z,97802.70
2018-07-15T07:33:59.317Z,97805.08
2018-07-15T07:36:31.851Z,97799.02
2018-07-15T07:39:06.326Z,97799.02
2018-07-15T07:41:38.244Z,97793.31
2018-07-15T07:44:10.221Z,97790.34
2018-07-15T07:46:42.292Z,97783.08
2018-07-15T07:49:14.430Z,97786.56
2018-07-15T07:51:47.923Z,97789.17
2018-07-15T07:54:21.101Z,97775.53
2018-07-15T07:56:53.051Z,97768.67
2018-07-15T07:59:24.813Z,97766.52
2018-07-15T08:01:57.944Z,97763.13
2018-07-15T08:04:31.046Z,97756.47
2018-07-15T08:07:03.367Z,97756.78
2018-07-15T08:09:35.044Z,97751.45
2018-07-15T08:12:07.160Z,97763.25
2018-07-15T08:14:38.995Z,97764.27
2018-07-15T08:17:10.819Z,97772.07
2018-07-15T08:19:42.787Z,97771.12
2018-07-15T08:22:14.897Z,97770.23
2018-07-15T08:24:46.499Z,97763.06
2018-07-15T08:27:18.637Z,97750.18
2018-07-15T08:29:59.462Z,97745.07
2018-07-15T08:32:31.626Z,97732.58
2018-07-15T08:35:03.306Z,97716.36
2018-07-15T08:37:35.108Z,97711.98
2018-07-15T08:40:06.920Z,97716.16
2018-07-15T08:42:38.905Z,97714.01
2018-07-15T08:45:10.852Z,97716.61
2018-07-15T08:47:42.943Z,97714.23
2018-07-15T08:50:14.860Z,97717.02
2018-07-15T08:52:46.790Z,97707.37
2018-07-15T08:55:19.368Z,97717.02
2018-07-15T08:57:51.452Z,97721.52
2018-07-15T09:00:22.911Z,97725.84
2018-07-15T09:02:54.835Z,97724.81
2018-07-15T09:05:26.266Z,97720.19
2018-07-15T09:07:58.152Z,97721.52
2018-07-15T09:10:30.037Z,97715.80
2018-07-15T09:13:01.958Z,97711.90
2018-07-15T09:15:33.694Z,97711.39
2018-07-15T09:18:05.695Z,97696.64
2018-07-15T09:20:37.545Z,97700.44
2018-07-15T09:23:09.656Z,97701.23
2018-07-15T09:25:41.712Z,97704.73
2018-07-15T09:28:14.672Z,97703.30
2018-07-15T09:30:46.637Z,97709.97
2018-07-15T09:33:18.454Z,97712.72
2018-07-15T09:35:50.072Z,97708.72
2018-07-15T09:38:21.948Z,97711.20
2018-07-15T09:40:54.034Z,97716.97
2018-07-15T09:43:25.697Z,97718.81
2018-07-15T09:45:57.615Z,97712.97
2018-07-15T09:48:29.419Z,97706.30
2018-07-15T09:51:01.164Z,97699.64
2018-07-15T09:53:33.004Z,97699.33
2018-07-15T09:56:04.753Z,97691.33
2018-07-15T09:58:36.656Z,97683.84
2018-07-15T10:01:08.152Z,97676.03
2018-07-15T10:03:40.007Z,97680.03
2018-07-15T10:06:11.875Z,97673.05
2018-07-15T10:08:43.697Z,97667.72
2018-07-15T10:11:15.775Z,97667.21
2018-07-15T10:13:47.469Z,97660.46
2018-07-15T10:16:19.148Z,97652.55
2018-07-15T10:18:50.935Z,97649.06
2018-07-15T10:21:22.578Z,97645.06
2018-07-15T10:23:54.387Z,97653.69
2018-07-15T10:26:25.794Z,97652.05
2018-07-15T10:28:57.556Z,97653.06
2018-07-15T10:31:29.179Z,97650.00
2018-07-15T10:34:01.161Z,97650.32
2018-07-15T10:36:32.709Z,97651.66
2018-07-15T10:39:04.738Z,97656.98
2018-07-15T10:41:36.582Z,97649.30
2018-07-15T10:44:08.654Z,97638.64
2018-07-15T10:46:40.340Z,97637.70
2018-07-15T10:49:12.143Z,97634.53
2018-07-15T10:51:43.666Z,97629.83
2018-07-15T10:54:15.433Z,97627.75
2018-07-15T10:56:47.177Z,97618.23
2018-07-15T10:59:19.066Z,97613.33
2018-07-15T11:01:50.845Z,97621.64
2018-07-15T11:04:22.806Z,97616.30
2018-07-15T11:06:54.875Z,97617.41
2018-07-15T11:09:26.647Z,97622.55
2018-07-15T11:11:58.316Z,97621.53
2018-07-15T11:14:30.087Z,97614.75
2018-07-15T11:17:01.829Z,97616.91
2018-07-15T11:19:34.148Z,97621.53
2018-07-15T11:22:05.867Z,97626.16
2018-07-15T11:24:37.735Z,97621.13
2018-07-15T11:27:09.441Z,97616.19
2018-07-15T11:29:41.336Z,97609.64
2018-07-15T11:32:14.555Z,97612.91
2018-07-15T11:34:46.223Z,97608.51
2018-07-15T11:37:17.734Z,97609.33
2018-07-15T11:39:49.560Z,97591.69
2018-07-15T11:42:21.194Z,97589.53
2018-07-15T11:44:53.067Z,97586.55
2018-07-15T11:47:25.158Z,97591.26
2018-07-15T11:49:57.058Z,97591.48
2018-07-15T11:52:28.672Z,97584.31
2018-07-15T11:55:00.561Z,97584.70
2018-07-15T11:57:32.210Z,97574.47
2018-07-15T12:00:05.630Z,97572.00
2018-07-15T12:02:37.546Z,97578.75
2018-07-15T12:05:09.665Z,97590.75
2018-07-15T12:07:41.317Z,97597.53
2018-07-15T12:10:13.163Z,97608.19
2018-07-15T12:12:45.529Z,97607.48
2018-07-15T12:15:17.307Z,97605.13
2018-07-15T12:17:49.117Z,97599.17
2018-07-15T12:20:20.985Z,97595.06
2018-07-15T12:22:52.839Z,97603.06
2018-07-15T12:25:25.185Z,97601.92
2018-07-15T12:27:56.881Z,97597.92
2018-07-15T12:30:28.753Z,97588.59
2018-07-15T12:33:00.694Z,97588.51
2018-07-15T12:35:32.341Z,97581.53
2018-07-15T12:38:03.920Z,97585.73
2018-07-15T12:40:35.785Z,97590.86
2018-07-15T12:43:07.224Z,97578.86
2018-07-15T12:45:39.184Z,97573.10
2018-07-15T12:48:11.004Z,97577.64
2018-07-15T12:50:42.792Z,97588.91
2018-07-15T12:53:14.160Z,97599.77
2018-07-15T12:55:45.907Z,97600.90
2018-07-15T12:58:17.493Z,97604.08
2018-07-15T13:00:51.637Z,97618.55
2018-07-15T13:03:24.177Z,97628.59
2018-07-15T13:05:56.091Z,97632.00
2018-07-15T13:08:27.783Z,97627.88
2018-07-15T13:10:59.286Z,97623.56
2018-07-15T13:13:31.214Z,97641.92
2018-07-15T13:16:02.940Z,97650.23
2018-07-15T13:18:34.718Z,97650.86
2018-07-15T13:21:06.790Z,97650.86
2018-07-15T13:23:38.263Z,97656.51
2018-07-15T13:26:10.059Z,97654.16
2018-07-15T13:28:41.718Z,97663.38
2018-07-15T13:31:13.107Z,97662.14
2018-07-15T13:33:44.327Z,97665.01
2018-07-15T13:36:15.772Z,97660.70
2018-07-15T13:38:47.634Z,97664.70
2018-07-15T13:41:19.363Z,97662.97
2018-07-15T13:43:51.044Z,97664.58
2018-07-15T13:46:22.914Z,97667.05
2018-07-15T13:48:54.602Z,97666.66
2018-07-15T13:51:26.355Z,97670.55
2018-07-15T13:53:57.872Z,97670.73
2018-07-15T13:56:29.708Z,97668.70
2018-07-15T13:59:01.429Z,97657.41
2018-07-15T14:01:32.938Z,97648.19
2018-07-15T14:04:04.772Z,97647.88
2018-07-15T14:06:36.522Z,97644.19
2018-07-15T14:09:09.051Z,97636.90
2018-07-15T14:11:40.608Z,97632.30
2018-07-15T14:14:12.350Z,97643.37
2018-07-15T14:16:44.297Z,97661.09
2018-07-15T14:19:16.042Z,97679.98
2018-07-15T14:21:47.918Z,97697.39
2018-07-15T14:24:19.839Z,97702.73
2018-07-15T14:26:51.714Z,97707.87
2018-07-15T14:29:23.491Z,97712.82
2018-07-15T14:31:55.509Z,97711.38
2018-07-15T14:34:27.168Z,97710.23
2018-07-15T14:36:59.056Z,97705.91
2018-07-15T14:39:41.028Z,97717.91
2018-07-15T14:42:12.795Z,97720.08
2018-07-15T14:44:44.500Z,97724.81
2018-07-15T14:47:16.380Z,97736.58
2018-07-15T14:49:47.715Z,97744.95
2018-07-15T14:52:19.550Z,97752.64
2018-07-15T14:54:51.195Z,97762.50
2018-07-15T14:57:22.967Z,97759.45
2018-07-15T14:59:54.532Z,97757.58
2018-07-15T15:02:26.256Z,97771.55
2018-07-15T15:04:58.162Z,97772.69
2018-07-15T15:07:30.266Z,97767.35
2018-07-15T15:10:02.059Z,97770.02
2018-07-15T15:12:33.933Z,97773.51
2018-07-15T15:15:05.587Z,97773.51
2018-07-15T15:17:37.665Z,97775.47
2018-07-15T15:20:09.235Z,97776.30
2018-07-15T15:22:40.936Z,97766.23
2018-07-15T15:25:12.536Z,97770.23
2018-07-15T15:27:44.241Z,97769.84
2018-07-15T15:30:15.942Z,97777.91
2018-07-15T15:32:47.653Z,97781.91
2018-07-15T15:35:19.408Z,97788.30
2018-07-15T15:37:51.292Z,97794.96
2018-07-15T15:40:22.722Z,97796.90
2018-07-15T15:42:54.518Z,97790.63
2018-07-15T15:45:26.056Z,97794.62
2018-07-15T15:47:57.948Z,97802.72
2018-07-15T15:50:29.747Z,97813.31
2018-07-15T15:53:01.613Z,97811.16
2018-07-15T15:55:33.724Z,97811.25
2018-07-15T15:58:05.393Z,97812.08
2018-07-15T16:00:37.097Z,97828.58
2018-07-15T16:03:08.987Z,97828.89
2018-07-15T16:05:40.689Z,97837.22
2018-07-15T16:08:12.533Z,97858.36
2018-07-15T16:10:44.606Z,97864.20
2018-07-15T16:13:16.430Z,97894.55
2018-07-15T16:15:48.206Z,97921.72
2018-07-15T16:18:20.001Z,97931.56
2018-07-15T16:20:51.780Z,97915.98
2018-07-15T16:23:24.094Z,97902.09
2018-07-15T16:25:55.885Z,97907.58
2018-07-15T16:28:27.619Z,97907.27
2018-07-15T16:30:59.425Z,97901.84
2018-07-15T16:33:31.375Z,97912.77
2018-07-15T16:36:02.948Z,97911.44
2018-07-15T16:38:34.803Z,97917.56
2018-07-15T16:41:06.242Z,97914.09
2018-07-15T16:43:38.135Z,97911.44
2018-07-15T16:46:09.573Z,97909.69
2018-07-15T16:48:41.413Z,97911.53
2018-07-15T16:51:12.798Z,97916.16
2018-07-15T16:53:44.663Z,97915.34
2018-07-15T16:56:16.707Z,97925.69
2018-07-15T16:58:48.717Z,97927.72
2018-07-15T17:01:21.113Z,97929.69
2018-07-15T17:03:53.027Z,97924.77
2018-07-15T17:06:25.018Z,97923.11
2018-07-15T17:08:56.723Z,97918.61
2018-07-15T17:11:28.385Z,97933.05
2018-07-15T17:14:00.294Z,97934.38
2018-07-15T17:16:32.104Z,97938.20
2018-07-15T17:19:03.677Z,97940.03
2018-07-15T17:21:35.234Z,97941.05
2018-07-15T17:24:07.876Z,97946.09
2018-07-15T17:26:39.512Z,97943.94
2018-07-15T17:29:11.257Z,97937.27
2018-07-15T17:31:43.229Z,97928.77
2018-07-15T17:34:15.058Z,97926.89
2018-07-15T17:36:46.511Z,97924.03
2018-07-15T17:39:18.707Z,97927.72
2018-07-15T17:41:50.832Z,97931.03
2018-07-15T17:44:22.684Z,97924.78
2018-07-15T17:46:54.328Z,97928.41
2018-07-15T17:49:26.160Z,97923.67
2018-07-15T17:51:57.881Z,97931.99
2018-07-15T17:54:29.762Z,97938.16
2018-07-15T17:57:01.235Z,97939.30
2018-07-15T17:59:33.125Z,97936.82
2018-07-15T18:02:05.011Z,97935.48
2018-07-15T18:04:36.919Z,97929.65
2018-07-15T18:07:08.716Z,97926.98
2018-07-15T18:09:40.378Z,97916.63
2018-07-15T18:12:12.151Z,97918.48
2018-07-15T18:14:44.133Z,97918.48
2018-07-15T18:17:15.824Z,97915.81
2018-07-15T18:19:47.703Z,97923.81
2018-07-15T18:22:19.281Z,97922.16
2018-07-15T18:24:52.583Z,97924.50
2018-07-15T18:27:24.423Z,97924.82
2018-07-15T18:29:56.259Z,97923.17
2018-07-15T18:32:28.521Z,97924.19
2018-07-15T18:35:00.342Z,97922.34
2018-07-15T18:37:31.938Z,97926.11
2018-07-15T18:40:03.686Z,97921.06
2018-07-15T18:42:35.305Z,97919.59
2018-07-15T18:45:07.255Z,97919.03
2018-07-15T18:53:32.814Z,97903.91
2018-07-15T18:56:04.466Z,97900.19
2018-07-15T18:58:36.195Z,97894.86
2018-07-15T19:01:08.148Z,97898.67
2018-07-15T19:03:39.908Z,97899.17
2018-07-15T19:06:11.529Z,97893.84
2018-07-15T19:08:43.504Z,97898.16
2018-07-15T19:11:15.312Z,97891.17
2018-07-15T19:13:47.128Z,97888.83
2018-07-15T19:16:19.685Z,97882.67
2018-07-15T19:18:51.534Z,97881.84
2018-07-15T19:21:23.305Z,97882.98
2018-07-15T19:23:55.052Z,97885.66
2018-07-15T19:26:27.073Z,97881.14
2018-07-15T19:28:59.825Z,97883.81
2018-07-15T19:31:31.654Z,97880.33
2018-07-15T19:34:03.649Z,97875.18
2018-07-15T19:36:35.375Z,97875.18
2018-07-15T19:39:07.913Z,97877.15
2018-07-15T19:41:39.623Z,97874.16
2018-07-15T19:44:11.601Z,97868.20
2018-07-15T19:46:43.395Z,97872.20
2018-07-15T19:49:15.004Z,97875.18
2018-07-15T19:51:47.181Z,97873.24
2018-07-15T19:54:19.332Z,97872.52
2018-07-15T19:56:51.005Z,97878.25
2018-07-15T19:59:22.915Z,97872.92
2018-07-15T20:01:54.859Z,97874.58
2018-07-15T20:04:26.588Z,97878.58
2018-07-15T20:06:58.294Z,97878.58
2018-07-15T20:09:30.166Z,97875.59
2018-07-15T20:12:01.947Z,97881.23
2018-07-15T20:14:33.919Z,97876.20
2018-07-15T20:17:05.491Z,97882.35
2018-07-15T20:19:37.373Z,97887.37
2018-07-15T20:22:09.276Z,97885.84
2018-07-15T20:24:41.025Z,97886.86
2018-07-15T20:27:12.993Z,97879.69
2018-07-15T20:29:44.793Z,97871.69
2018-07-15T20:32:16.270Z,97869.02
2018-07-15T20:34:48.086Z,97866.58
2018-07-15T20:37:19.572Z,97869.02
2018-07-15T20:39:51.471Z,97867.69
2018-07-15T20:42:23.286Z,97880.52
2018-07-15T20:44:55.173Z,97871.69
2018-07-15T20:47:26.728Z,97876.01
2018-07-15T20:49:58.641Z,97874.16
2018-07-15T20:52:30.315Z,97875.18
2018-07-15T20:55:02.411Z,97882.16
2018-07-15T20:57:33.964Z,97875.50
2018-07-15T21:00:06.073Z,97878.67
2018-07-15T21:02:37.734Z,97880.20
2018-07-15T21:05:09.576Z,97878.67
2018-07-15T21:07:41.253Z,97879.91
2018-07-15T21:10:13.170Z,97875.37
2018-07-15T21:12:44.720Z,97864.92
2018-07-15T21:15:16.645Z,97865.75
2018-07-15T21:17:48.421Z,97857.95
2018-07-15T21:20:20.070Z,97859.59
2018-07-15T21:22:51.824Z,97852.42
2018-07-15T21:25:23.717Z,97849.44
2018-07-15T21:27:55.546Z,97847.28
2018-07-15T21:30:27.308Z,97848.93
2018-07-15T21:32:59.240Z,97847.59
2018-07-15T21:35:31.139Z,97849.95
2018-07-15T21:38:02.749Z,97858.77
2018-07-15T21:40:34.629Z,97862.04
2018-07-15T21:43:06.246Z,97857.25
2018-07-15T21:45:38.030Z,97859.59
2018-07-15T21:48:09.712Z,97854.27
2018-07-15T21:50:41.223Z,97852.10
2018-07-15T21:53:12.849Z,97844.61
2018-07-15T21:55:44.657Z,97848.10
2018-07-15T21:58:16.432Z,97839.79
2018-07-15T22:00:48.214Z,97841.63
2018-07-15T22:03:19.892Z,97840.30
2018-07-15T22:05:51.914Z,97830.45
2018-07-15T22:08:33.099Z,97834.97
2018-07-15T22:11:05.194Z,97841.12
2018-07-15T22:13:36.729Z,97837.83
2018-07-15T22:16:08.399Z,97839.66
2018-07-15T22:18:40.018Z,97839.98
2018-07-15T22:21:11.748Z,97837.83
2018-07-15T22:23:43.575Z,97836.48
2018-07-15T22:26:15.388Z,97847.98
2018-07-15T22:28:47.161Z,97846.96
2018-07-15T22:31:18.944Z,97846.64
2018-07-15T22:33:50.655Z,97846.01
2018-07-15T22:36:22.585Z,97852.48
2018-07-15T22:38:54.331Z,97849.72
2018-07-15T22:41:26.069Z,97843.66
2018-07-15T22:43:57.872Z,97845.19
2018-07-15T22:46:29.715Z,97840.39
2018-07-15T22:49:01.758Z,97843.75
2018-07-15T22:51:33.574Z,97848.67
2018-07-15T22:54:05.273Z,97849.09
2018-07-15T22:56:37.086Z,97853.91
2018-07-15T22:59:08.699Z,97851.75
2018-07-15T23:01:40.621Z,97852.26
2018-07-15T23:04:12.354Z,97853.27
2018-07-15T23:06:44.069Z,97855.43
2018-07-15T23:09:15.827Z,97852.26
2018-07-15T23:11:47.625Z,97850.42
2018-07-15T23:14:19.212Z,97855.43
2018-07-15T23:16:51.331Z,97856.45
2018-07-15T23:19:22.760Z,97862.28
2018-07-15T23:21:54.435Z,97867.11
2018-07-15T23:24:26.135Z,97863.62
2018-07-15T23:26:57.564Z,97864.95
2018-07-15T23:29:29.239Z,97868.95
2018-07-15T23:32:01.131Z,97864.82
2018-07-15T23:34:32.749Z,97868.53
2018-07-15T23:37:04.399Z,97868.02
2018-07-15T23:39:36.121Z,97875.48
2018-07-15T23:42:07.920Z,97876.81
2018-07-15T23:44:39.500Z,97878.15
2018-07-15T23:47:10.962Z,97884.11
2018-07-15T23:49:42.714Z,97880.02
2018-07-15T23:52:14.784Z,97881.95
2018-07-15T23:54:46.435Z,97885.86
2018-07-15T23:57:18.259Z,97890.68
2018-07-15T23:59:49.952Z,97899.79
